Time;durP1;ratioP1;P1;durP2;ratioP2;P2;SDS_P1;SDS_P2;PMS_P1;PMS_P2;Temp;Humidity;BMP_temperature;BMP_pressure;BME280_temperature;BME280_humidity;BME280_pressure;Samples;Min_cycle;Max_cycle;Signal;HPM_P1;HPM_P2
2023/05/10 00:00:31;;;;;;;7.63;6.87;;;;;;;9.71;100.00;95154.72;5013927;28;20459;-83
2023/05/10 00:02:57;;;;;;;6.30;5.73;;;;;;;9.63;100.00;95152.72;5013732;28;20477;-84
2023/05/10 00:05:24;;;;;;;6.27;5.77;;;;;;;9.62;100.00;95151.03;5014358;28;20860;-84
2023/05/10 00:07:51;;;;;;;7.17;6.47;;;;;;;9.57;100.00;95157.59;5014275;28;20482;-84
2023/05/10 00:10:19;;;;;;;6.60;6.00;;;;;;;9.59;100.00;95161.75;4996042;28;20449;-84
2023/05/10 00:12:46;;;;;;;7.63;6.27;;;;;;;9.51;100.00;95150.19;5013648;28;20440;-84
2023/05/10 00:15:13;;;;;;;7.47;6.77;;;;;;;9.63;100.00;95151.88;5013804;28;20434;-83
2023/05/10 00:17:39;;;;;;;8.60;7.80;;;;;;;9.63;100.00;95149.25;5013547;28;20450;-84
2023/05/10 00:20:07;;;;;;;8.50;7.70;;;;;;;9.56;100.00;95148.06;5013819;28;20502;-84
2023/05/10 00:22:36;;;;;;;9.03;8.13;;;;;;;9.57;100.00;95147.94;4995389;28;20479;-83
2023/05/10 00:25:04;;;;;;;9.00;8.10;;;;;;;9.62;100.00;95137.94;5013684;28;20458;-84
2023/05/10 00:27:32;;;;;;;9.57;8.57;;;;;;;9.52;100.00;95143.97;5013663;28;20490;-84
2023/05/10 00:29:59;;;;;;;16.73;8.83;;;;;;;9.59;100.00;95145.22;5013806;28;20431;-84
2023/05/10 00:32:28;;;;;;;9.03;8.13;;;;;;;9.62;100.00;95142.34;5013835;28;20443;-84
2023/05/10 00:34:55;;;;;;;9.67;8.77;;;;;;;9.68;100.00;95146.28;5013435;28;20457;-84
2023/05/10 00:37:22;;;;;;;8.63;7.80;;;;;;;9.62;100.00;95145.81;5013722;28;20844;-84
2023/05/10 00:39:48;;;;;;;11.33;8.57;;;;;;;9.52;100.00;95141.38;5013485;28;20447;-84
2023/05/10 00:42:15;;;;;;;10.13;9.17;;;;;;;9.85;100.00;95144.03;5013468;28;20491;-84
2023/05/10 00:44:43;;;;;;;12.33;10.00;;;;;;;10.03;100.00;95141.72;5013788;28;20447;-84
2023/05/10 00:47:11;;;;;;;10.67;9.60;;;;;;;10.19;100.00;95138.75;5013223;28;20439;-84
2023/05/10 00:49:38;;;;;;;10.73;9.40;;;;;;;10.33;100.00;95137.66;5013490;28;20560;-84
2023/05/10 00:52:05;;;;;;;10.97;9.87;;;;;;;10.42;100.00;95139.59;5012978;28;20530;-84
2023/05/10 00:54:32;;;;;;;11.63;9.80;;;;;;;10.55;100.00;95141.09;5013206;28;20527;-85
2023/05/10 00:56:59;;;;;;;9.43;8.50;;;;;;;10.56;100.00;95141.91;5013366;28;20479;-84
2023/05/10 00:59:26;;;;;;;9.57;8.53;;;;;;;10.64;100.00;95136.03;5013490;28;20506;-84
2023/05/10 01:01:54;;;;;;;10.73;8.60;;;;;;;10.49;100.00;95138.97;5013173;28;20741;-84
2023/05/10 01:04:25;;;;;;;10.30;9.20;;;;;;;10.68;100.00;95137.44;5013408;28;20509;-84
2023/05/10 01:06:52;;;;;;;11.20;8.80;;;;;;;10.79;100.00;95135.63;5013465;28;20432;-84
2023/05/10 01:09:19;;;;;;;10.50;8.17;;;;;;;10.81;100.00;95140.75;5013570;28;20435;-84
2023/05/10 01:11:46;;;;;;;8.97;8.07;;;;;;;10.71;100.00;95129.34;5013197;28;20450;-84
2023/05/10 01:14:14;;;;;;;11.10;8.70;;;;;;;10.79;100.00;95133.00;5013022;28;20435;-84
2023/05/10 01:16:42;;;;;;;10.20;8.90;;;;;;;10.92;100.00;95138.06;5013038;28;20422;-83
2023/05/10 01:19:17;;;;;;;11.63;9.07;;;;;;;11.01;100.00;95132.09;4978796;28;20494;-84
2023/05/10 01:21:54;;;;;;;8.87;8.03;;;;;;;10.95;100.00;95131.75;5013279;28;20470;-84
2023/05/10 01:25:05;;;;;;;9.33;8.43;;;;;;;10.96;100.00;95128.97;5016032;28;20508;-84
2023/05/10 01:27:49;;;;;;;10.10;8.47;;;;;;;10.78;100.00;95122.63;5017037;28;20521;-85
2023/05/10 01:30:51;;;;;;;8.00;7.30;;;;;;;10.91;100.00;95125.06;5016315;28;20432;-83
2023/05/10 01:33:25;;;;;;;8.83;8.03;;;;;;;11.06;100.00;95122.03;5016745;28;20439;-84
2023/05/10 01:38:50;;;;;;;7.90;7.20;;;;;;;11.18;100.00;95126.25;4985513;28;20455;-84
2023/05/10 01:41:20;;;;;;;7.90;5.60;;;;;;;10.84;100.00;95116.88;5016032;28;20480;-84
2023/05/10 01:43:55;;;;;;;8.67;6.90;;;;;;;10.86;100.00;95113.16;5016161;28;20784;-84
2023/05/10 01:46:28;;;;;;;6.70;5.77;;;;;;;10.93;100.00;95113.50;5016435;28;20534;-84
2023/05/10 01:48:59;;;;;;;6.40;5.90;;;;;;;10.88;100.00;95115.66;5016512;28;20475;-84
2023/05/10 01:51:32;;;;;;;7.93;5.97;;;;;;;10.80;100.00;95115.47;5014239;28;20456;-84
2023/05/10 01:54:02;;;;;;;6.40;5.80;;;;;;;10.81;100.00;95111.88;5016220;28;20499;-84
2023/05/10 01:56:32;;;;;;;5.30;4.87;;;;;;;10.73;100.00;95114.31;5016598;28;20438;-84
2023/05/10 01:59:01;;;;;;;7.13;6.43;;;;;;;10.78;100.00;95114.75;5016170;28;20509;-84
2023/05/10 02:01:28;;;;;;;6.17;5.67;;;;;;;10.70;100.00;95117.19;5015738;28;20533;-84
2023/05/10 02:03:59;;;;;;;8.30;6.13;;;;;;;10.47;100.00;95119.88;5016176;28;20821;-83
2023/05/10 02:06:28;;;;;;;7.20;6.50;;;;;;;10.38;100.00;95111.91;5016110;28;20432;-83
2023/05/10 02:08:55;;;;;;;7.40;6.70;;;;;;;10.15;100.00;95117.19;5015919;28;21014;-83
2023/05/10 02:11:22;;;;;;;6.20;5.70;;;;;;;10.04;100.00;95121.59;5015723;28;20844;-84
2023/05/10 02:13:51;;;;;;;8.73;6.10;;;;;;;9.96;100.00;95124.00;5015604;28;20432;-83
2023/05/10 02:16:21;;;;;;;9.77;5.83;;;;;;;9.76;100.00;95117.69;5015948;28;20431;-84
2023/05/10 02:18:51;;;;;;;9.30;6.07;;;;;;;9.80;100.00;95127.81;5016103;28;20440;-83
2023/05/10 02:21:21;;;;;;;6.63;5.30;;;;;;;9.57;100.00;95132.22;5015708;28;20453;-84
2023/05/10 02:23:50;;;;;;;10.27;6.07;;;;;;;9.56;100.00;95129.72;5015680;28;20447;-84
2023/05/10 02:26:21;;;;;;;9.73;7.23;;;;;;;9.52;100.00;95128.28;5015620;28;20835;-84
2023/05/10 02:28:50;;;;;;;5.67;5.17;;;;;;;9.46;100.00;95126.97;5015733;28;20435;-84
2023/05/10 02:31:17;;;;;;;8.23;6.47;;;;;;;9.34;100.00;95127.06;5015194;28;20442;-83
2023/05/10 02:33:47;;;;;;;6.53;5.90;;;;;;;9.36;100.00;95117.31;5015685;28;20451;-84
2023/05/10 02:36:14;;;;;;;6.63;5.93;;;;;;;9.37;100.00;95121.59;5014386;28;20449;-83
2023/05/10 02:38:44;;;;;;;6.53;5.90;;;;;;;9.38;100.00;95121.47;5014748;28;20446;-83
2023/05/10 02:41:12;;;;;;;6.83;5.10;;;;;;;9.29;100.00;95130.88;5014759;28;20438;-83
2023/05/10 02:43:40;;;;;;;6.27;5.70;;;;;;;9.32;100.00;95133.25;5014842;28;20490;-83
2023/05/10 02:46:07;;;;;;;6.50;5.90;;;;;;;9.35;100.00;95129.56;5014273;28;20793;-83
2023/05/10 02:48:34;;;;;;;6.90;6.20;;;;;;;9.28;99.21;95131.00;5014650;28;20512;-83
2023/05/10 02:51:06;;;;;;;6.07;5.57;;;;;;;9.15;97.19;95135.47;5015226;28;20845;-83
2023/05/10 02:53:37;;;;;;;6.27;5.20;;;;;;;9.25;98.86;95134.69;5014803;28;20525;-83
2023/05/10 02:56:14;;;;;;;8.07;5.67;;;;;;;9.21;98.66;95128.00;5014888;28;21065;-84
2023/05/10 02:58:41;;;;;;;6.77;5.97;;;;;;;9.25;98.92;95124.22;5015536;28;20482;-84
2023/05/10 03:01:08;;;;;;;8.90;6.73;;;;;;;9.26;99.57;95115.41;5015109;28;20442;-83
2023/05/10 03:03:35;;;;;;;6.27;5.63;;;;;;;9.27;100.00;95116.25;5012946;28;20992;-83
2023/05/10 03:06:02;;;;;;;10.37;6.20;;;;;;;9.21;98.23;95125.38;5014825;28;20525;-84
2023/05/10 03:08:30;;;;;;;7.00;5.60;;;;;;;9.11;98.17;95124.41;5014649;28;20438;-84
2023/05/10 03:11:10;;;;;;;7.00;6.40;;;;;;;9.29;100.00;95123.03;5015397;28;20795;-84
2023/05/10 03:14:04;;;;;;;6.57;4.93;;;;;;;9.29;98.47;95123.03;5015361;28;20485;-84
2023/05/10 03:16:41;;;;;;;9.10;6.13;;;;;;;9.40;97.39;95118.75;4973481;28;20526;-85
2023/05/10 03:19:16;;;;;;;6.37;5.73;;;;;;;9.26;95.56;95132.91;4974150;28;20859;-84
2023/05/10 03:21:48;;;;;;;7.03;6.40;;;;;;;9.07;96.24;95128.22;4973568;28;20452;-84
2023/05/10 03:24:16;;;;;;;7.87;6.53;;;;;;;9.17;96.64;95126.56;4973316;28;20443;-84
2023/05/10 03:26:45;;;;;;;5.90;5.33;;;;;;;9.27;97.94;95135.41;4973458;28;20456;-84
2023/05/10 03:29:14;;;;;;;7.00;5.97;;;;;;;9.36;96.27;95127.78;4974192;28;20528;-84
2023/05/10 03:31:41;;;;;;;7.00;6.30;;;;;;;9.55;97.17;95138.53;4973256;28;20535;-84
2023/05/10 03:34:14;;;;;;;8.07;6.03;;;;;;;9.60;96.27;95137.22;4984713;28;20502;-84
2023/05/10 03:36:40;;;;;;;11.20;5.50;;;;;;;9.77;97.93;95130.66;5014572;28;20558;-83
2023/05/10 03:39:07;;;;;;;6.63;6.00;;;;;;;9.91;96.65;95129.59;5014601;28;20451;-86
2023/05/10 03:41:34;;;;;;;9.23;5.80;;;;;;;9.72;94.14;95138.06;5015380;28;20432;-86
2023/05/10 03:44:01;;;;;;;7.23;6.17;;;;;;;9.91;96.94;95137.47;5015742;28;20479;-86
2023/05/10 03:46:29;;;;;;;6.90;6.20;;;;;;;10.10;98.28;95139.47;5014670;28;20463;-85
2023/05/10 03:48:56;;;;;;;7.30;5.77;;;;;;;10.21;98.72;95142.94;5013779;28;20447;-83
2023/05/10 03:51:23;;;;;;;6.50;5.90;;;;;;;10.26;97.84;95133.88;5013378;28;20443;-84
2023/05/10 03:53:49;;;;;;;8.57;6.40;;;;;;;10.31;95.79;95140.41;5014024;28;20482;-85
2023/05/10 03:56:16;;;;;;;7.37;6.10;;;;;;;10.36;95.14;95142.66;5014850;28;20478;-86
2023/05/10 03:58:43;;;;;;;7.10;6.40;;;;;;;10.16;94.33;95150.31;5013438;28;20490;-84
2023/05/10 04:01:10;;;;;;;6.73;6.10;;;;;;;10.27;94.48;95153.91;5013441;28;20855;-84
2023/05/10 04:03:38;;;;;;;9.60;5.63;;;;;;;10.34;94.32;95153.28;5013157;28;20997;-84
2023/05/10 04:06:06;;;;;;;8.20;5.60;;;;;;;10.38;94.76;95154.72;5013347;28;20504;-85
2023/05/10 04:08:33;;;;;;;6.70;6.10;;;;;;;10.23;93.43;95148.91;5013586;28;20447;-83
2023/05/10 04:11:07;;;;;;;6.27;5.67;;;;;;;10.15;93.76;95159.16;4979813;28;20196;-85
2023/05/10 04:13:34;;;;;;;6.50;5.80;;;;;;;10.30;94.85;95153.66;5014179;28;20519;-84
2023/05/10 04:16:01;;;;;;;6.47;5.77;;;;;;;10.26;95.09;95155.69;5013666;28;20454;-85
2023/05/10 04:18:27;;;;;;;7.93;5.73;;;;;;;10.35;96.21;95159.38;5011528;28;20435;-85
2023/05/10 04:20:55;;;;;;;6.33;5.73;;;;;;;10.37;94.83;95160.91;5013515;28;20440;-84
2023/05/10 04:23:22;;;;;;;9.03;5.87;;;;;;;10.28;94.31;95166.06;5018097;28;20770;-84
2023/05/10 04:25:49;;;;;;;5.33;4.90;;;;;;;10.29;93.15;95160.69;5013782;28;20797;-84
2023/05/10 04:28:16;;;;;;;6.50;5.90;;;;;;;10.20;92.87;95161.41;5013166;28;20517;-83
2023/05/10 04:30:43;;;;;;;6.63;5.87;;;;;;;9.92;91.68;95158.31;5013156;28;20451;-84
2023/05/10 04:40:00;;;;;;;6.50;5.43;;;;;;;10.18;95.95;95160.69;5013602;28;20771;-82
2023/05/10 04:42:27;;;;;;;8.87;6.00;;;;;;;10.31;97.09;95164.03;4995010;28;20573;-82
2023/05/10 04:44:54;;;;;;;6.40;5.80;;;;;;;10.28;93.28;95163.44;4995840;28;20431;-83
2023/05/10 04:47:21;;;;;;;6.30;5.70;;;;;;;10.24;93.98;95153.19;4995512;28;20498;-82
2023/05/10 04:49:48;;;;;;;8.90;6.60;;;;;;;10.35;95.85;95154.13;5012922;28;20464;-83
2023/05/10 04:52:17;;;;;;;7.60;6.67;;;;;;;10.40;95.05;95151.97;5013238;28;20448;-82
2023/05/10 04:54:43;;;;;;;8.47;7.13;;;;;;;10.28;94.98;95160.81;5013621;28;20542;-81
2023/05/10 04:57:12;;;;;;;8.37;6.53;;;;;;;10.50;100.00;95159.00;5013542;28;20869;-81
2023/05/10 04:59:38;;;;;;;11.70;6.80;;;;;;;10.40;99.32;95151.97;5016708;28;20443;-82
2023/05/10 05:02:06;;;;;;;11.13;7.33;;;;;;;10.51;100.00;95155.41;5017564;28;20936;-84
2023/05/10 05:04:33;;;;;;;6.93;6.30;;;;;;;10.12;96.75;95167.25;5017273;28;20485;-83
2023/05/10 05:06:59;;;;;;;6.90;6.00;;;;;;;9.96;99.65;95152.84;5016725;28;20980;-83
2023/05/10 05:09:26;;;;;;;8.30;7.50;;;;;;;9.99;100.00;95157.81;4998643;28;20505;-85
2023/05/10 05:11:53;;;;;;;15.00;7.10;;;;;;;10.24;100.00;95147.94;4998145;28;20463;-87
2023/05/10 05:14:21;;;;;;;10.20;8.17;;;;;;;10.41;100.00;95154.50;5017074;28;20454;-83
2023/05/10 05:16:48;;;;;;;10.07;7.73;;;;;;;10.45;100.00;95158.53;5017438;28;20477;-83
2023/05/10 05:19:15;;;;;;;7.67;6.73;;;;;;;10.44;100.00;95163.91;5016553;28;20910;-83
2023/05/10 05:21:42;;;;;;;7.93;7.13;;;;;;;10.43;100.00;95151.75;5004686;28;20460;-83
2023/05/10 05:24:10;;;;;;;8.17;6.90;;;;;;;10.61;100.00;95165.16;4997380;28;20472;-85
2023/05/10 05:26:36;;;;;;;11.10;6.53;;;;;;;10.61;97.68;95165.16;4998084;28;20525;-83
2023/05/10 05:29:03;;;;;;;7.93;7.13;;;;;;;10.46;99.08;95165.44;5015129;28;20447;-83
2023/05/10 05:31:31;;;;;;;8.50;7.00;;;;;;;10.52;100.00;95167.56;5014991;28;20497;-83
2023/05/10 05:33:58;;;;;;;9.67;7.73;;;;;;;10.48;100.00;95170.56;4996539;28;20512;-83
2023/05/10 05:36:25;;;;;;;10.37;8.00;;;;;;;10.52;100.00;95170.19;5015114;28;20440;-83
2023/05/10 05:38:52;;;;;;;10.10;8.87;;;;;;;10.38;100.00;95173.06;5015154;28;20443;-83
2023/05/10 05:41:18;;;;;;;9.77;7.40;;;;;;;10.30;98.19;95178.09;5015314;28;20458;-83
2023/05/10 05:43:45;;;;;;;9.47;8.47;;;;;;;10.35;99.70;95175.94;5015082;28;20892;-83
2023/05/10 05:46:12;;;;;;;10.37;8.80;;;;;;;10.50;100.00;95168.66;5015266;28;20447;-82
2023/05/10 05:48:40;;;;;;;10.03;8.43;;;;;;;10.47;100.00;95182.84;5014822;28;20497;-83
2023/05/10 05:51:07;;;;;;;10.73;8.40;;;;;;;10.50;100.00;95184.41;5015031;28;20463;-83
2023/05/10 05:53:34;;;;;;;10.33;8.73;;;;;;;10.35;100.00;95186.44;5014810;28;20582;-82
2023/05/10 05:56:01;;;;;;;12.33;8.57;;;;;;;10.35;100.00;95169.84;5014949;28;20443;-83
2023/05/10 05:58:27;;;;;;;11.00;9.20;;;;;;;10.08;100.00;95185.94;5014988;28;20539;-83
2023/05/10 06:00:54;;;;;;;12.00;9.43;;;;;;;9.94;100.00;95182.63;5014684;28;20446;-83
2023/05/10 06:03:21;;;;;;;10.10;8.30;;;;;;;9.38;98.82;95192.19;5014411;28;20490;-83
2023/05/10 06:05:50;;;;;;;10.07;9.07;;;;;;;9.10;100.00;95189.97;5014437;28;20443;-83
2023/05/10 06:08:16;;;;;;;13.80;10.57;;;;;;;9.40;100.00;95192.91;5014491;28;20930;-82
2023/05/10 06:10:44;;;;;;;11.60;10.13;;;;;;;9.38;100.00;95189.56;5014347;28;20447;-82
2023/05/10 06:13:10;;;;;;;13.93;11.30;;;;;;;9.68;100.00;95191.66;5014415;28;20804;-83
2023/05/10 06:15:37;;;;;;;13.47;9.90;;;;;;;9.73;100.00;95186.88;5014343;28;20450;-82
2023/05/10 06:18:04;;;;;;;11.00;9.50;;;;;;;9.83;100.00;95184.38;5014845;28;20464;-83
2023/05/10 06:20:32;;;;;;;14.73;11.70;;;;;;;10.08;100.00;95183.31;5014357;28;20442;-83
2023/05/10 06:23:00;;;;;;;16.13;12.20;;;;;;;10.18;100.00;95184.28;5014141;28;20577;-82
2023/05/10 06:25:27;;;;;;;12.80;10.03;;;;;;;10.27;100.00;95188.00;5014175;28;20443;-83
2023/05/10 06:27:57;;;;;;;13.17;10.40;;;;;;;10.36;100.00;95203.84;5014105;28;20447;-83
2023/05/10 06:30:27;;;;;;;11.87;9.20;;;;;;;10.11;100.00;95201.44;5014084;28;20475;-83
2023/05/10 06:32:54;;;;;;;12.50;10.27;;;;;;;10.09;100.00;95203.34;5014238;28;20518;-83
2023/05/10 06:35:20;;;;;;;12.80;9.70;;;;;;;10.11;100.00;95210.13;5014342;28;20471;-83
2023/05/10 06:37:47;;;;;;;12.77;10.53;;;;;;;9.99;100.00;95210.25;5013912;28;20826;-82
2023/05/10 06:40:16;;;;;;;10.50;9.23;;;;;;;10.22;100.00;95204.09;5013955;28;20443;-83
2023/05/10 06:42:44;;;;;;;10.43;8.37;;;;;;;10.36;100.00;95206.47;5014061;28;20578;-82
2023/05/10 06:45:12;;;;;;;13.20;9.93;;;;;;;10.53;100.00;95199.88;5013734;28;20958;-82
2023/05/10 06:47:39;;;;;;;12.27;10.00;;;;;;;10.54;100.00;95205.00;5014000;28;20461;-83
2023/05/10 06:50:07;;;;;;;10.00;8.67;;;;;;;10.22;99.36;95204.94;5013773;28;20447;-82
2023/05/10 06:52:33;;;;;;;10.30;9.10;;;;;;;9.80;100.00;95205.59;5013798;28;20443;-83
2023/05/10 06:55:01;;;;;;;9.43;7.20;;;;;;;9.52;100.00;95212.94;4995343;28;20450;-83
2023/05/10 06:57:30;;;;;;;13.23;9.83;;;;;;;9.63;100.00;95205.09;5013284;28;20497;-83
2023/05/10 06:59:57;;;;;;;8.73;7.87;;;;;;;9.28;100.00;95199.91;5013790;28;20450;-83
2023/05/10 07:02:24;;;;;;;9.50;8.50;;;;;;;9.44;100.00;95198.75;4995034;28;20998;-83
2023/05/10 07:04:51;;;;;;;10.87;9.17;;;;;;;9.60;100.00;95200.09;5013477;28;21059;-83
2023/05/10 07:07:18;;;;;;;12.90;9.03;;;;;;;9.71;100.00;95207.13;5013603;28;20517;-83
2023/05/10 07:09:45;;;;;;;11.03;9.90;;;;;;;9.47;100.00;95207.22;5013962;28;20448;-83
2023/05/10 07:12:12;;;;;;;11.70;9.60;;;;;;;9.74;100.00;95212.13;5013885;28;20475;-83
2023/05/10 07:14:48;;;;;;;11.90;8.47;;;;;;;9.81;100.00;95207.25;5013669;28;20447;-83
2023/05/10 07:17:15;;;;;;;16.40;9.27;;;;;;;9.76;100.00;95212.03;5013564;28;20538;-83
2023/05/10 07:19:41;;;;;;;10.30;8.63;;;;;;;9.94;100.00;95203.59;5013031;28;20795;-83
2023/05/10 07:22:08;;;;;;;10.43;9.10;;;;;;;10.01;100.00;95213.59;5012577;28;20455;-83
2023/05/10 07:24:36;;;;;;;14.47;10.30;;;;;;;10.02;100.00;95218.72;5012998;28;20483;-82
2023/05/10 07:27:04;;;;;;;14.50;10.37;;;;;;;10.06;100.00;95214.06;5013799;28;20443;-83
2023/05/10 07:29:31;;;;;;;13.90;11.43;;;;;;;9.96;100.00;95213.97;5013060;28;20542;-82
2023/05/10 07:31:59;;;;;;;17.10;10.67;;;;;;;10.03;100.00;95214.31;5012990;28;20443;-82
2023/05/10 07:34:26;;;;;;;14.83;11.70;;;;;;;10.04;100.00;95216.81;5012916;28;20448;-82
2023/05/10 07:36:52;;;;;;;14.70;10.90;;;;;;;10.01;100.00;95218.84;5012724;28;20443;-82
2023/05/10 07:39:20;;;;;;;19.00;12.97;;;;;;;10.04;100.00;95210.72;4978239;28;20566;-83
2023/05/10 07:41:47;;;;;;;12.63;11.33;;;;;;;10.10;100.00;95228.59;5013081;28;20494;-83
2023/05/10 07:44:13;;;;;;;13.67;10.10;;;;;;;10.05;100.00;95228.13;5012817;28;20487;-83
2023/05/10 07:46:40;;;;;;;13.20;9.57;;;;;;;10.08;99.26;95231.34;5012872;28;20446;-82
2023/05/10 07:49:09;;;;;;;17.37;10.30;;;;;;;9.98;99.67;95224.31;5012967;28;20431;-82
2023/05/10 07:51:35;;;;;;;16.37;14.70;;;;;;;9.89;99.51;95231.94;5013054;28;20478;-82
2023/05/10 07:54:03;;;;;;;15.40;10.90;;;;;;;9.84;98.84;95228.03;5012692;28;20502;-83
2023/05/10 07:56:32;;;;;;;14.87;11.37;;;;;;;9.79;99.91;95241.44;5012473;28;20798;-82
2023/05/10 07:59:00;;;;;;;12.83;11.33;;;;;;;9.69;99.79;95229.16;5012608;28;20454;-83
2023/05/10 08:01:28;;;;;;;12.27;9.37;;;;;;;9.40;97.31;95233.97;5012375;28;20458;-82
2023/05/10 08:03:54;;;;;;;22.07;13.13;;;;;;;9.53;100.00;95229.47;5013055;28;20486;-82
2023/05/10 08:06:23;;;;;;;18.27;11.60;;;;;;;9.65;100.00;95232.97;5012642;28;20458;-83
2023/05/10 08:08:50;;;;;;;22.83;14.13;;;;;;;9.85;100.00;95230.53;5013091;28;20525;-82
2023/05/10 08:11:17;;;;;;;21.53;13.63;;;;;;;10.06;100.00;95232.41;5012927;28;20783;-82
2023/05/10 08:13:44;;;;;;;18.70;12.60;;;;;;;10.25;100.00;95232.72;5012342;28;20459;-83
2023/05/10 08:16:11;;;;;;;20.57;13.63;;;;;;;10.45;100.00;95234.59;5012632;28;20542;-83
2023/05/10 08:18:38;;;;;;;26.27;14.93;;;;;;;10.68;100.00;95221.44;5012183;28;20530;-83
2023/05/10 08:21:05;;;;;;;20.23;13.33;;;;;;;10.86;100.00;95227.84;5013808;28;20439;-82
2023/05/10 08:23:33;;;;;;;14.37;11.40;;;;;;;10.68;96.37;95237.19;4995309;28;20482;-83
2023/05/10 08:26:00;;;;;;;17.10;11.47;;;;;;;10.67;96.94;95238.13;5012502;28;20443;-83
2023/05/10 08:28:27;;;;;;;13.00;10.30;;;;;;;10.52;94.59;95241.03;5012172;28;20447;-83
2023/05/10 08:30:54;;;;;;;10.97;9.80;;;;;;;10.03;97.60;95241.38;5012957;28;20438;-83
2023/05/10 08:33:21;;;;;;;16.90;12.73;;;;;;;10.21;100.00;95244.41;5014042;28;20455;-83
2023/05/10 08:35:48;;;;;;;13.77;12.33;;;;;;;9.88;98.29;95239.94;4981968;28;20459;-82
2023/05/10 08:38:15;;;;;;;14.63;11.40;;;;;;;9.74;99.92;95238.34;5016160;28;20450;-83
2023/05/10 08:40:44;;;;;;;14.10;9.77;;;;;;;9.95;100.00;95238.50;5016360;28;20451;-83
2023/05/10 08:43:14;;;;;;;15.17;10.50;;;;;;;9.94;100.00;95239.47;5016041;28;20443;-82
2023/05/10 08:45:43;;;;;;;11.50;9.90;;;;;;;10.16;100.00;95238.66;5016205;28;20462;-83
2023/05/10 08:48:11;;;;;;;13.13;10.67;;;;;;;10.28;100.00;95242.13;5016329;28;20500;-83
2023/05/10 08:50:40;;;;;;;11.10;10.00;;;;;;;9.90;97.54;95246.72;5015933;28;20458;-83
2023/05/10 08:53:11;;;;;;;11.43;10.20;;;;;;;10.06;99.90;95232.41;5018946;28;20443;-82
2023/05/10 08:55:38;;;;;;;10.77;9.60;;;;;;;10.08;98.71;95243.63;5016091;28;20451;-83
2023/05/10 08:58:07;;;;;;;13.53;10.70;;;;;;;10.08;100.00;95247.06;4981325;28;20482;-83
2023/05/10 09:00:35;;;;;;;14.00;11.60;;;;;;;9.97;100.00;95244.47;5015927;28;20905;-83
2023/05/10 09:03:03;;;;;;;12.53;11.23;;;;;;;10.10;100.00;95239.09;5015951;28;20458;-82
2023/05/10 09:05:30;;;;;;;18.20;12.93;;;;;;;10.28;100.00;95240.34;5016056;28;20895;-83
2023/05/10 09:07:58;;;;;;;17.50;14.57;;;;;;;10.36;100.00;95239.72;5016015;28;20454;-83
2023/05/10 09:10:27;;;;;;;22.63;13.23;;;;;;;10.51;100.00;95243.78;5015601;28;20447;-82
2023/05/10 09:12:54;;;;;;;20.50;13.33;;;;;;;10.74;100.00;95236.72;5015426;28;20854;-82
2023/05/10 09:15:23;;;;;;;18.70;14.50;;;;;;;10.90;100.00;95233.69;5016346;28;20447;-83
2023/05/10 09:17:50;;;;;;;18.37;14.80;;;;;;;11.06;100.00;95240.22;5015519;28;20445;-83
2023/05/10 09:20:18;;;;;;;19.10;14.30;;;;;;;11.16;98.55;95241.13;5015393;28;20438;-83
2023/05/10 09:22:45;;;;;;;16.00;13.83;;;;;;;11.27;99.75;95234.13;5015453;28;20443;-83
2023/05/10 09:25:13;;;;;;;17.00;13.47;;;;;;;11.23;96.08;95235.34;5015294;28;20483;-82
2023/05/10 09:27:41;;;;;;;14.47;12.87;;;;;;;11.10;95.85;95241.63;5015645;28;20449;-83
2023/05/10 09:30:09;;;;;;;14.87;12.33;;;;;;;11.13;96.79;95233.50;5015256;28;20532;-82
2023/05/10 09:32:42;;;;;;;12.23;11.03;;;;;;;11.08;95.09;95232.19;5015519;28;20534;-83
2023/05/10 09:35:10;;;;;;;16.23;11.30;;;;;;;11.01;94.41;95225.78;5015271;28;20462;-82
2023/05/10 09:37:37;;;;;;;13.70;11.50;;;;;;;10.98;96.72;95218.13;5014973;28;20942;-82
2023/05/10 09:40:08;;;;;;;14.00;12.47;;;;;;;10.95;96.95;95215.75;5015359;28;20470;-82
2023/05/10 09:42:35;;;;;;;14.10;12.30;;;;;;;10.94;93.61;95214.91;5015205;28;20451;-82
2023/05/10 09:45:04;;;;;;;18.67;13.70;;;;;;;11.03;98.18;95219.44;5014564;28;20482;-82
2023/05/10 09:47:33;;;;;;;23.03;15.50;;;;;;;11.17;97.63;95223.56;5015057;28;20454;-83
2023/05/10 09:50:03;;;;;;;13.20;11.47;;;;;;;11.38;100.00;95224.44;5015001;28;20456;-82
2023/05/10 09:52:31;;;;;;;12.83;11.70;;;;;;;11.46;96.00;95227.25;5014699;28;20513;-83
2023/05/10 09:54:58;;;;;;;19.00;13.83;;;;;;;11.46;93.19;95215.91;5015087;28;20443;-83
2023/05/10 09:57:26;;;;;;;16.23;13.03;;;;;;;11.46;94.52;95218.53;5014859;28;20471;-82
2023/05/10 09:59:54;;;;;;;12.97;11.23;;;;;;;11.50;95.55;95217.31;5014827;28;20483;-82
2023/05/10 10:02:21;;;;;;;17.27;10.90;;;;;;;11.38;94.42;95210.47;5014842;28;20493;-82
2023/05/10 10:04:50;;;;;;;13.13;11.60;;;;;;;11.37;93.42;95207.00;5014555;28;20497;-82
2023/05/10 10:07:24;;;;;;;11.20;10.00;;;;;;;11.28;92.48;95217.44;5014822;28;20533;-83
2023/05/10 10:09:51;;;;;;;16.87;11.93;;;;;;;11.40;95.20;95203.28;5014905;28;20534;-83
2023/05/10 10:12:19;;;;;;;13.07;11.23;;;;;;;11.54;95.12;95210.84;5014427;28;20941;-82
2023/05/10 10:14:47;;;;;;;14.80;10.20;;;;;;;11.54;92.53;95202.97;5014673;28;20536;-83
2023/05/10 10:17:14;;;;;;;17.13;13.00;;;;;;;11.51;94.02;95207.63;5014411;28;20443;-82
2023/05/10 10:19:42;;;;;;;17.20;11.13;;;;;;;11.40;92.10;95196.22;5014521;28;20477;-83
2023/05/10 10:22:10;;;;;;;16.53;11.23;;;;;;;11.54;93.67;95200.31;5014495;28;20451;-83
2023/05/10 10:24:39;;;;;;;12.00;10.10;;;;;;;11.60;94.22;95199.84;5014248;28;20574;-83
2023/05/10 10:27:20;;;;;;;14.77;10.60;;;;;;;11.73;94.53;95202.25;5014131;28;20447;-83
2023/05/10 10:29:57;;;;;;;10.93;9.83;;;;;;;11.72;94.10;95204.06;5014149;28;21015;-83
2023/05/10 10:32:31;;;;;;;12.33;10.50;;;;;;;11.70;92.51;95203.34;5014602;28;20450;-82
2023/05/10 10:34:58;;;;;;;12.53;8.83;;;;;;;11.62;91.44;95208.44;5014327;28;20517;-83
2023/05/10 10:37:41;;;;;;;9.27;8.30;;;;;;;11.56;91.60;95211.53;5015607;28;20439;-83
2023/05/10 10:40:25;;;;;;;11.37;9.27;;;;;;;11.55;92.52;95204.63;5015392;28;20767;-84
2023/05/10 10:42:53;;;;;;;9.07;7.67;;;;;;;11.68;93.27;95204.44;5014082;28;20449;-84
2023/05/10 10:45:21;;;;;;;12.20;8.83;;;;;;;11.91;92.04;95199.91;5013047;28;20483;-81
2023/05/10 10:47:49;;;;;;;14.07;7.20;;;;;;;11.75;88.42;95213.47;5017260;28;20551;-80
2023/05/10 10:50:16;;;;;;;11.77;9.10;;;;;;;11.73;91.14;95203.09;4993887;28;20448;-80
2023/05/10 10:52:45;;;;;;;8.67;7.83;;;;;;;11.69;90.61;95203.47;5012863;28;20507;-80
2023/05/10 10:55:13;;;;;;;9.87;8.70;;;;;;;11.69;91.01;95201.69;5012619;28;20449;-80
2023/05/10 10:57:51;;;;;;;15.83;8.53;;;;;;;11.69;90.63;95203.47;5012478;28;20467;-80
2023/05/10 11:00:27;;;;;;;11.27;9.57;;;;;;;11.62;91.21;95205.81;5011937;28;20443;-81
2023/05/10 11:02:56;;;;;;;10.97;8.97;;;;;;;11.58;92.51;95204.38;4995332;28;20534;-83
2023/05/10 11:05:42;;;;;;;10.60;9.13;;;;;;;11.68;93.66;95207.06;5013368;28;20496;-83
2023/05/10 11:08:12;;;;;;;16.27;9.47;;;;;;;11.73;93.74;95215.41;4971960;28;20492;-83
2023/05/10 11:10:40;;;;;;;11.07;9.70;;;;;;;11.80;93.67;95208.69;4972335;28;20468;-82
2023/05/10 11:13:09;;;;;;;13.13;9.80;;;;;;;11.76;92.13;95205.47;4971880;28;20863;-83
2023/05/10 11:15:38;;;;;;;11.50;9.27;;;;;;;11.94;93.56;95194.38;4972021;28;20442;-83
2023/05/10 11:18:20;;;;;;;11.20;8.47;;;;;;;11.85;90.69;95203.88;4971947;28;20860;-83
2023/05/10 11:20:51;;;;;;;10.53;9.37;;;;;;;11.71;90.96;95197.13;4895688;29;20453;-83
2023/05/10 11:23:19;;;;;;;15.43;10.20;;;;;;;11.82;93.04;95200.66;4895571;29;20453;-83
2023/05/10 11:25:47;;;;;;;15.93;9.90;;;;;;;11.91;91.88;95199.91;4849446;29;20500;-83
2023/05/10 11:28:15;;;;;;;10.20;8.57;;;;;;;11.90;90.18;95201.72;4895557;29;20452;-83
2023/05/10 11:30:45;;;;;;;10.10;8.80;;;;;;;11.79;90.15;95207.84;4895513;29;20452;-83
2023/05/10 11:33:17;;;;;;;10.50;9.40;;;;;;;11.82;91.04;95211.19;4895253;29;20883;-83
2023/05/10 11:35:43;;;;;;;8.47;7.67;;;;;;;11.89;92.09;95201.84;4895557;29;20461;-83
2023/05/10 11:38:11;;;;;;;10.20;8.60;;;;;;;11.81;91.54;95209.53;4895214;29;20456;-83
2023/05/10 11:40:39;;;;;;;23.33;9.85;;;;;;;11.88;92.50;95205.44;4895304;29;20452;-83